Latest Coastal Weather Observations for Yamba

IDN60701

Issued at 9:02 pm EST Thursday 25 April 2024 (issued every 10 minutes, with the page automatically refreshed every 10 minutes)

About coastal observations | Map of coastal stations | Coastal observations for NSW | Marine services | Other Formats
Station Details ID: 058012 Name: YAMBA PILOT STATION Lat: -29.43 Lon: 153.36 Height: 27.4 m
Data from the previous 72 hours. | See also: Recent months at Yamba
Date/Time
EST
Wind Sea
Height
m
Swell Vis
km
Cloud Weather Temp
°C
Press
MSL
hPa
Rain since
9am
mm
Dir  Spd
kts
Gust
kts
Height
m
Period
s
Dir
25/09:00pm SE 13 16 - - - - - - - 20.9 1018.0 0.0
25/08:30pm SE 13 17 - - - - - - - 21.2 1017.8 0.0
25/08:00pm SE 13 16 - - - - - - - 21.1 1017.7 0.0
25/07:30pm SE 14 19 - - - - - - - 21.1 1017.4 0.0
25/07:00pm SSE 14 19 - - - - - - - 21.4 1017.1 0.0
25/06:30pm SE 15 20 - - - - - - - 21.5 1017.0 0.0
25/06:00pm SSE 14 19 - - - - - - - 21.5 1016.9 0.0
25/05:30pm SSE 14 18 - - - - - - - 21.5 1016.5 0.0
25/05:00pm SE 15 20 - - - - - - - 21.7 1016.2 0.0
25/04:30pm SSE 13 19 - - - - - - - 21.7 1016.0 0.0
25/04:00pm SSE 15 19 - - - - - - - 22.0 1015.9 0.0
25/03:30pm SSE 15 21 - - - - - - - 22.2 1015.8 0.0
25/03:00pm SSE 15 20 - - - - - - - 22.1 1015.8 0.0
25/02:30pm SSE 16 21 - - - - - - - 21.9 1016.0 0.0
25/02:00pm SSE 15 22 - - - - - - - 21.9 1015.8 0.0
25/01:30pm SSE 11 18 - - - - - - - 22.8 1015.9 0.0
25/01:00pm SSE 11 17 - - - - - - - 23.0 1016.1 0.0
25/12:30pm SSE 12 18 - - - - - - - 23.5 1016.4 0.0
25/12:00pm S 12 19 - - - - - - - 22.6 1016.8 0.0
25/11:30am SSE 13 19 - - - - - - - 22.8 1017.2 0.0
25/11:00am SSE 13 18 - - - - - - - 22.0 1017.5 0.0
25/10:30am S 12 19 - - - - - - - 21.8 1017.5 0.0
25/10:00am S 13 21 - - - - - - - 21.9 1017.6 0.0
25/09:30am SSW 15 21 - - - - - - - 21.4 1017.4 0.0
25/09:00am S 10 16 - - - - - - - 22.0 1017.5 0.0
25/08:30am SSW 9 14 - - - - - - - 21.0 1017.4 0.0
25/08:00am SSW 6 10 - - - - - - - 20.0 1017.1 0.0
25/07:30am SW 4 7 - - - - - - - 19.4 1016.9 0.0
25/07:00am SW 4 6 - - - - - - - 18.4 1016.5 0.0
25/06:30am SW 4 6 - - - - - - - 18.2 1016.1 0.0
25/06:00am SW 5 7 - - - - - - - 18.5 1016.0 0.0
25/05:30am WSW 5 12 - - - - - - - 17.7 1015.8 0.0
25/05:00am W 6 8 - - - - - - - 17.8 1015.1 0.0
25/04:30am W 6 7 - - - - - - - 18.2 1015.0 0.0
25/04:00am W 6 7 - - - - - - - 18.4 1015.0 0.0
25/03:30am W 6 8 - - - - - - - 18.4 1014.9 0.0
25/03:00am WNW 5 6 - - - - - - - 18.1 1014.9 0.0
25/02:30am W 5 7 - - - - - - - 18.3 1015.2 0.0
25/02:00am WSW 5 7 - - - - - - - 18.5 1015.5 0.0
25/01:30am W 4 6 - - - - - - - 18.5 1015.8 0.0
25/01:00am WSW 5 6 - - - - - - - 18.9 1016.3 0.0
25/12:30am WSW 3 4 - - - - - - - 18.8 1016.3 0.0
25/12:00am WNW 5 7 - - - - - - - 18.8 1016.6 0.0
 
Date/Time
EST
Wind Sea
Height
m
Swell Vis
km
Cloud Weather Temp
°C
Press
MSL
hPa
Rain since
9am
mm
Dir  Spd
kts
Gust
kts
Height
m
Period
s
Dir
24/11:30pm WNW 5 6 - - - - - - - 19.2 1016.5 0.0
24/11:00pm NW 7 11 - - - - - - - 20.0 1016.8 0.0
24/10:30pm NW 5 8 - - - - - - - 19.8 1016.9 0.0
24/10:00pm NW 5 6 - - - - - - - 20.0 1017.2 0.0
24/09:30pm NW 5 6 - - - - - - - 20.3 1017.5 0.0
24/09:00pm NW 5 7 - - - - - - - 20.5 1017.6 0.0
24/08:30pm NW 5 7 - - - - - - - 20.7 1018.0 0.0
24/08:00pm NW 4 5 - - - - - - - 20.9 1017.7 0.0
24/07:30pm NNW 4 5 - - - - - - - 20.7 1017.6 0.0
24/07:00pm N 3 5 - - - - - - - 20.7 1017.6 0.0
24/06:30pm N 3 4 - - - - - - - 20.7 1017.5 0.0
24/06:00pm NNW 2 4 - - - - - - - 21.1 1017.4 0.0
24/05:30pm N 3 5 - - - - - - - 21.4 1017.1 0.0
24/05:00pm NNE 3 5 - - - - - - - 22.0 1016.9 0.0
24/04:30pm NNE 4 6 - - - - - - - 22.8 1016.6 0.0
24/04:00pm NNE 3 6 - - - - - - - 23.4 1016.4 0.0
24/03:30pm NNE 4 6 - - - - - - - 23.4 1016.6 0.0
24/03:00pm NNE 4 6 - - - - - - - 23.6 1016.9 0.0
24/02:30pm NNE 5 6 - - - - - - - 24.4 1016.9 0.0
24/02:00pm NNE 3 5 - - - - - - - 24.2 1017.2 0.0
24/01:30pm ENE 4 6 - - - - - - - 23.2 1017.3 0.0
24/01:00pm ENE 4 5 - - - - - - - 23.0 1017.7 0.0
24/12:30pm NNW 4 7 - - - - - - - 24.3 1017.9 0.0
24/12:00pm N 3 5 - - - - - - - 23.5 1018.3 0.0
24/11:30am W 5 7 - - - - - - - 23.3 1018.8 0.0
24/11:00am W 3 5 - - - - - - - 22.3 1019.2 0.0
24/10:30am SW 4 6 - - - - - - - 20.9 1019.8 0.0
24/10:00am SW 4 7 - - - - - - - 20.7 1020.2 0.0
24/09:30am WSW 5 8 - - - - - - - 20.2 1020.2 0.0
24/09:00am W 5 9 - - - - - - - 20.1 1020.4 2.6
24/08:30am W 5 8 - - - - - - - 20.4 1020.5 2.6
24/08:00am WSW 4 7 - - - - - - - 19.2 1020.2 2.6
24/07:30am W 5 9 - - - - - - - 19.0 1020.1 2.6
24/07:00am WSW 5 10 - - - - - - - 18.9 1019.8 2.6
24/06:30am WNW 7 9 - - - - - - - 18.7 1019.4 2.6
24/06:00am W 6 8 - - - - - - - 18.9 1019.7 2.6
24/05:30am W 6 7 - - - - - - - 18.9 1019.3 2.6
24/05:00am SSW 5 6 - - - - - - - 19.4 1019.3 2.6
24/04:30am SSW 6 8 - - - - - - - 18.9 1019.3 2.6
24/04:00am WSW 3 5 - - - - - - - 18.6 1019.4 2.6
24/03:30am W 5 8 - - - - - - - 18.8 1019.7 2.4
24/03:00am W 7 10 - - - - - - Recent precip. 18.9 1020.1 2.4
24/02:30am W 8 11 - - - - - - - 19.1 1020.2 2.4
24/02:00am NW 7 11 - - - - - - - 19.4 1020.6 2.2
24/01:30am W 5 8 - - - - - - - 18.9 1020.8 2.2
24/01:00am WSW 5 7 - - - - - - - 18.7 1021.2 2.2
24/12:30am WSW 5 8 - - - - - - - 18.5 1021.3 2.0
24/12:00am SW 4 6 - - - - - - Rain 18.8 1021.4 1.2
 
Date/Time
EST
Wind Sea
Height
m
Swell Vis
km
Cloud Weather Temp
°C
Press
MSL
hPa
Rain since
9am
mm
Dir  Spd
kts
Gust
kts
Height
m
Period
s
Dir
23/11:30pm WSW 5 8 - - - - - - - 19.2 1021.3 0.8
23/11:00pm W 5 7 - - - - - - - 19.5 1021.5 0.8
23/10:30pm WSW 5 6 - - - - - - - 19.4 1021.6 0.6
23/10:00pm W 5 7 - - - - - - - 19.5 1021.7 0.6
23/09:30pm SSW 7 8 - - - - - - - 19.9 1021.7 0.6
23/09:00pm SSW 6 7 - - - - - - - 20.4 1021.7 0.6
23/08:30pm SSW 7 10 - - - - - - - 19.6 1021.7 0.6
23/08:00pm S 6 8 - - - - - - - 20.2 1021.9 0.6
23/07:30pm WSW 2 4 - - - - - - - 20.4 1021.7 0.0
23/07:00pm SE 4 6 - - - - - - - 21.7 1021.6 0.0
23/06:30pm SE 7 9 - - - - - - - 21.6 1021.5 0.0
23/06:00pm SE 6 8 - - - - - - - 21.3 1021.4 0.0
23/05:30pm ESE 6 9 - - - - - - - 21.5 1021.4 0.0
23/05:00pm ESE 6 9 - - - - - - - 21.9 1021.3 0.0
23/04:30pm SE 6 8 - - - - - - - 22.7 1021.2 0.0
23/04:00pm SSE 9 12 - - - - - - - 22.4 1021.3 0.0
23/03:30pm SSE 9 12 - - - - - - - 22.9 1021.5 0.0
23/03:00pm SSE 10 13 - - - - - - - 22.6 1021.7 0.0
23/02:30pm SE 10 12 - - - - - - - 23.2 1022.0 0.0
23/02:00pm SE 10 13 - - - - - - - 23.6 1022.2 0.0
23/01:30pm SE 10 13 - - - - - - - 23.8 1022.5 0.0
23/01:00pm SE 10 14 - - - - - - - 24.1 1022.7 0.0
23/12:30pm E 6 9 - - - - - - - 23.8 1023.1 0.0
23/12:00pm E 8 12 - - - - - - - 24.4 1023.5 0.0
23/11:30am ESE 11 15 - - - - - - - 23.7 1023.8 0.0
23/11:00am ESE 11 15 - - - - - - - 23.7 1024.1 0.0
23/10:30am SSE 10 14 - - - - - - - 22.5 1024.4 0.0
23/10:00am SSE 9 13 - - - - - - - 22.2 1024.7 0.0
23/09:30am SSE 9 13 - - - - - - - 23.0 1024.7 0.0
23/09:00am SSE 8 11 - - - - - - - 23.0 1024.8 15.8
23/08:30am SW 6 9 - - - - - - - 21.9 1024.9 15.8
23/08:00am SW 5 10 - - - - - - - 20.3 1024.7 15.8
23/07:30am WSW 6 8 - - - - - - - 20.0 1024.4 15.8
23/07:00am WSW 6 7 - - - - - - - 19.9 1024.1 15.8
23/06:30am W 6 7 - - - - - - - 19.3 1023.6 15.8
23/06:00am WNW 7 9 - - - - - - - 19.1 1023.4 15.8
23/05:30am NW 5 9 - - - - - - - 19.0 1023.3 15.8
23/05:00am WSW 5 8 - - - - - - - 18.8 1023.0 15.8
23/04:30am WSW 5 7 - - - - - - - 19.0 1022.7 15.8
23/04:00am W 6 8 - - - - - - - 18.7 1022.7 14.8
23/03:30am WSW 6 8 - - - - - - - 18.6 1022.8 14.8
23/03:00am SW 5 8 - - - - - - Rain 18.8 1022.7 14.8
23/02:30am WSW 5 8 - - - - - - - 18.8 1022.8 14.6
23/02:00am SW 6 9 - - - - - - - 18.7 1023.0 14.6
23/01:30am WSW 5 7 - - - - - - - 18.9 1023.4 14.4
23/01:00am WSW 5 7 - - - - - - - 18.9 1023.7 14.4
23/12:30am WSW 5 7 - - - - - - - 19.2 1024.0 14.4
23/12:00am WSW 5 8 - - - - - - Rain 19.5 1024.0 14.0
 
Date/Time
EST
Wind Sea
Height
m
Swell Vis
km
Cloud Weather Temp
°C
Press
MSL
hPa
Rain since
9am
mm
Dir  Spd
kts
Gust
kts
Height
m
Period
s
Dir
22/11:30pm WSW 5 8 - - - - - - - 19.5 1024.2 8.8
22/11:00pm WSW 5 8 - - - - - - - 19.8 1024.4 8.6
22/10:30pm SSW 6 10 - - - - - - - 20.2 1024.4 5.6
22/10:00pm E 5 9 - - - - - - - 20.5 1024.6 5.6
22/09:30pm SSW 6 10 - - - - - - - 19.7 1024.6 0.8

Other formats

Comma delimited format used in spreadsheet applications
http://www.bom.gov.au/fwo/IDN60701/IDN60701.94589.axf

JavaScript Object Notation format (JSON) in row-major order
http://www.bom.gov.au/fwo/IDN60701/IDN60701.94589.json

Data quality

Most of these data are generated automatically and are frequently updated. Quality checks on data are not normally performed. It is possible for incorrect values to appear. Refer to information at About Latest Weather Observations and please check the disclaimer before using these data.